createdAt,value
2018-08-06T00:00:38.455Z,0
2018-08-06T00:01:38.191Z,0
2018-08-06T00:02:38.440Z,0
2018-08-06T00:03:38.450Z,0
2018-08-06T00:04:38.177Z,0
2018-08-06T00:05:38.426Z,0
2018-08-06T00:06:38.174Z,0
2018-08-06T00:07:38.162Z,0
2018-08-06T00:08:38.160Z,0
2018-08-06T00:09:38.407Z,0
2018-08-06T00:10:37.898Z,0
2018-08-06T00:11:38.145Z,0
2018-08-06T00:12:38.399Z,0
2018-08-06T00:13:38.393Z,0
2018-08-06T00:14:38.393Z,0
2018-08-06T00:15:38.385Z,0
2018-08-06T00:16:38.377Z,0
2018-08-06T00:17:38.373Z,0
2018-08-06T00:18:38.366Z,0
2018-08-06T00:19:38.366Z,0
2018-08-06T00:20:38.363Z,0
2018-08-06T00:21:38.352Z,0
2018-08-06T00:22:38.352Z,0
2018-08-06T00:23:38.354Z,0
2018-08-06T00:24:38.090Z,0
2018-08-06T00:25:38.340Z,0
2018-08-06T00:26:38.103Z,0
2018-08-06T00:27:38.076Z,0
2018-08-06T00:28:38.325Z,0
2018-08-06T00:29:38.442Z,0
2018-08-06T00:30:38.317Z,0
2018-08-06T00:31:38.309Z,0
2018-08-06T00:32:38.054Z,0
2018-08-06T00:33:38.055Z,0
2018-08-06T00:34:38.050Z,0
2018-08-06T00:35:38.293Z,0
2018-08-06T00:36:38.289Z,0
2018-08-06T00:37:38.284Z,0
2018-08-06T00:38:38.283Z,0
2018-08-06T00:39:38.023Z,0
2018-08-06T00:40:38.269Z,0
2018-08-06T00:41:38.264Z,0
2018-08-06T00:42:38.272Z,0
2018-08-06T00:43:37.756Z,0
2018-08-06T00:44:38.253Z,0
2018-08-06T00:45:38.556Z,0
2018-08-06T00:46:37.991Z,0
2018-08-06T00:47:38.238Z,0
2018-08-06T00:48:38.236Z,0
2018-08-06T00:49:37.982Z,0
2018-08-06T00:50:38.233Z,0
2018-08-06T00:51:38.218Z,0
2018-08-06T00:52:37.964Z,0
2018-08-06T00:53:38.216Z,0
2018-08-06T00:54:38.216Z,0
2018-08-06T00:55:37.954Z,0
2018-08-06T00:56:38.203Z,0
2018-08-06T00:57:38.194Z,0
2018-08-06T00:58:37.939Z,0
2018-08-06T00:59:37.934Z,0
2018-08-06T01:00:38.183Z,0
2018-08-06T01:01:38.177Z,0
2018-08-06T01:02:38.176Z,0
2018-08-06T01:03:38.175Z,0
2018-08-06T01:04:37.916Z,0
2018-08-06T01:05:37.913Z,0
2018-08-06T01:06:38.159Z,0
2018-08-06T01:07:37.899Z,0
2018-08-06T01:08:37.893Z,0
2018-08-06T01:09:37.891Z,0
2018-08-06T01:10:37.639Z,0
2018-08-06T01:11:38.132Z,0
2018-08-06T01:12:38.131Z,0
2018-08-06T01:13:37.620Z,0
2018-08-06T01:14:38.121Z,0
2018-08-06T01:15:37.867Z,0
2018-08-06T01:16:38.109Z,0
2018-08-06T01:17:37.860Z,0
2018-08-06T01:18:38.100Z,0
2018-08-06T01:19:38.098Z,0
2018-08-06T01:20:37.856Z,0
2018-08-06T01:21:38.083Z,0
2018-08-06T01:22:38.082Z,0
2018-08-06T01:23:38.079Z,0
2018-08-06T01:24:38.075Z,0
2018-08-06T01:25:37.815Z,0
2018-08-06T01:26:37.811Z,0
2018-08-06T01:27:38.069Z,0
2018-08-06T01:28:37.804Z,0
2018-08-06T01:29:38.059Z,0
2018-08-06T01:30:37.793Z,0
2018-08-06T01:31:38.045Z,0
2018-08-06T01:32:38.043Z,0
2018-08-06T01:33:38.033Z,0
2018-08-06T01:34:37.773Z,0
2018-08-06T01:35:38.021Z,0
2018-08-06T01:36:37.763Z,0
2018-08-06T01:37:38.012Z,0
2018-08-06T01:38:38.006Z,0
2018-08-06T01:39:38.003Z,0
2018-08-06T01:40:37.499Z,0
2018-08-06T01:41:37.998Z,0
2018-08-06T01:42:37.739Z,0
2018-08-06T01:43:37.985Z,0
2018-08-06T01:44:37.726Z,0
2018-08-06T01:45:37.770Z,0
2018-08-06T01:46:37.971Z,0
2018-08-06T01:47:37.717Z,0
2018-08-06T01:48:37.711Z,0
2018-08-06T01:49:37.706Z,0
2018-08-06T01:50:37.699Z,0
2018-08-06T01:51:37.946Z,0
2018-08-06T01:52:37.689Z,0
2018-08-06T01:53:37.941Z,0
2018-08-06T01:54:37.429Z,0
2018-08-06T01:55:37.955Z,0
2018-08-06T01:56:37.923Z,0
2018-08-06T01:57:37.926Z,0
2018-08-06T01:58:37.915Z,0
2018-08-06T01:59:37.912Z,0
2018-08-06T02:00:37.908Z,0
2018-08-06T02:01:37.906Z,0
2018-08-06T02:02:37.893Z,0
2018-08-06T02:03:37.891Z,0
2018-08-06T02:04:37.633Z,0
2018-08-06T02:05:37.878Z,0
2018-08-06T02:06:37.623Z,0
2018-08-06T02:07:37.913Z,0
2018-08-06T02:08:37.612Z,0
2018-08-06T02:09:38.113Z,0
2018-08-06T02:10:37.607Z,4
2018-08-06T02:11:37.851Z,4
2018-08-06T02:12:37.851Z,4
2018-08-06T02:13:37.339Z,4
2018-08-06T02:14:37.840Z,4
2018-08-06T02:15:37.838Z,4
2018-08-06T02:16:37.580Z,0
2018-08-06T02:17:37.826Z,0
2018-08-06T02:18:37.818Z,0
2018-08-06T02:19:37.817Z,0
2018-08-06T02:20:37.815Z,0
2018-08-06T02:21:37.809Z,0
2018-08-06T02:22:37.550Z,0
2018-08-06T02:23:37.800Z,0
2018-08-06T02:24:37.793Z,0
2018-08-06T02:25:37.790Z,0
2018-08-06T02:26:37.785Z,0
2018-08-06T02:27:37.773Z,0
2018-08-06T02:28:37.772Z,0
2018-08-06T02:29:37.762Z,0
2018-08-06T02:30:37.511Z,0
2018-08-06T02:31:37.255Z,0
2018-08-06T02:32:37.750Z,0
2018-08-06T02:33:37.759Z,0
2018-08-06T02:34:37.748Z,0
2018-08-06T02:35:37.746Z,0
2018-08-06T02:36:37.745Z,0
2018-08-06T02:37:37.732Z,0
2018-08-06T02:38:37.477Z,0
2018-08-06T02:39:37.721Z,0
2018-08-06T02:40:37.719Z,0
2018-08-06T02:41:37.719Z,0
2018-08-06T02:42:37.459Z,0
2018-08-06T02:43:37.447Z,0
2018-08-06T02:44:37.695Z,0
2018-08-06T02:45:37.687Z,0
2018-08-06T02:46:37.438Z,0
2018-08-06T02:47:37.425Z,0
2018-08-06T02:48:37.694Z,0
2018-08-06T02:49:37.413Z,0
2018-08-06T02:50:37.158Z,4
2018-08-06T02:51:37.656Z,4
2018-08-06T02:52:37.690Z,4
2018-08-06T02:53:37.646Z,4
2018-08-06T02:54:37.644Z,0
2018-08-06T02:55:37.637Z,4
2018-08-06T02:56:37.379Z,4
2018-08-06T02:57:37.375Z,4
2018-08-06T02:58:37.620Z,4
2018-08-06T02:59:37.616Z,8
2018-08-06T03:00:37.613Z,8
2018-08-06T03:01:37.357Z,8
2018-08-06T03:02:37.602Z,8
2018-08-06T03:03:37.601Z,8
2018-08-06T03:04:37.594Z,12
2018-08-06T03:05:37.622Z,12
2018-08-06T03:06:37.586Z,16
2018-08-06T03:07:37.580Z,20
2018-08-06T03:08:37.320Z,20
2018-08-06T03:09:37.570Z,24
2018-08-06T03:10:37.564Z,28
2018-08-06T03:11:37.558Z,32
2018-08-06T03:12:37.312Z,32
2018-08-06T03:13:37.546Z,40
2018-08-06T03:14:37.547Z,48
2018-08-06T03:15:37.541Z,52
2018-08-06T03:16:37.287Z,60
2018-08-06T03:17:37.525Z,64
2018-08-06T03:18:37.272Z,76
2018-08-06T03:19:37.514Z,80
2018-08-06T03:20:37.259Z,96
2018-08-06T03:21:37.535Z,104
2018-08-06T03:22:37.250Z,116
2018-08-06T03:23:37.505Z,132
2018-08-06T03:24:37.491Z,144
2018-08-06T03:25:37.233Z,160
2018-08-06T03:26:37.485Z,176
2018-08-06T03:27:37.774Z,196
2018-08-06T03:28:37.225Z,212
2018-08-06T03:29:37.310Z,236
2018-08-06T03:30:36.960Z,256
2018-08-06T03:31:37.468Z,284
2018-08-06T03:32:37.455Z,304
2018-08-06T03:33:37.454Z,332
2018-08-06T03:34:37.187Z,360
2018-08-06T03:35:37.438Z,388
2018-08-06T03:36:37.181Z,416
2018-08-06T03:37:37.426Z,448
2018-08-06T03:38:37.423Z,476
2018-08-06T03:39:37.160Z,512
2018-08-06T03:40:37.417Z,548
2018-08-06T03:41:37.406Z,584
2018-08-06T03:42:37.409Z,620
2018-08-06T03:43:37.146Z,660
2018-08-06T03:44:37.387Z,696
2018-08-06T03:45:37.382Z,740
2018-08-06T03:46:37.128Z,788
2018-08-06T03:47:37.376Z,828
2018-08-06T03:48:37.113Z,876
2018-08-06T03:49:37.367Z,916
2018-08-06T03:50:37.361Z,968
2018-08-06T03:51:37.103Z,1016
2018-08-06T03:52:37.400Z,1064
2018-08-06T03:53:37.340Z,1116
2018-08-06T03:54:37.084Z,1160
2018-08-06T03:55:37.089Z,1208
2018-08-06T03:56:37.331Z,1256
2018-08-06T03:57:37.067Z,1300
2018-08-06T03:58:37.061Z,1352
2018-08-06T03:59:37.312Z,1408
2018-08-06T04:00:37.077Z,1460
2018-08-06T04:01:37.296Z,1512
2018-08-06T04:02:36.789Z,1564
2018-08-06T04:03:37.288Z,1620
2018-08-06T04:04:37.286Z,1688
2018-08-06T04:05:37.279Z,1744
2018-08-06T04:06:37.023Z,1776
2018-08-06T04:07:36.764Z,1816
2018-08-06T04:08:37.271Z,1932
2018-08-06T04:09:37.256Z,2536
2018-08-06T04:10:37.275Z,3032
2018-08-06T04:11:37.254Z,3156
2018-08-06T04:12:36.990Z,3228
2018-08-06T04:13:37.246Z,3348
2018-08-06T04:14:36.982Z,3412
2018-08-06T04:15:36.726Z,3576
2018-08-06T04:16:36.973Z,3736
2018-08-06T04:17:36.974Z,3824
2018-08-06T04:18:36.711Z,4000
2018-08-06T04:19:37.275Z,4216
2018-08-06T04:20:37.209Z,4548
2018-08-06T04:21:36.700Z,4848
2018-08-06T04:22:37.200Z,5068
2018-08-06T04:23:37.224Z,5276
2018-08-06T04:24:36.689Z,5236
2018-08-06T04:25:37.193Z,5296
2018-08-06T04:26:37.187Z,5400
2018-08-06T04:27:36.933Z,5868
2018-08-06T04:28:37.188Z,6028
2018-08-06T04:29:37.180Z,6040
2018-08-06T04:30:36.928Z,6316
2018-08-06T04:31:37.174Z,6344
2018-08-06T04:32:36.933Z,6464
2018-08-06T04:33:36.930Z,6656
2018-08-06T04:34:36.917Z,7188
2018-08-06T04:35:36.667Z,7448
2018-08-06T04:36:37.174Z,7640
2018-08-06T04:37:36.914Z,7812
2018-08-06T04:38:37.555Z,7816
2018-08-06T04:39:37.165Z,7752
2018-08-06T04:40:36.919Z,8136
2018-08-06T04:41:37.172Z,7916
2018-08-06T04:42:36.667Z,7760
2018-08-06T04:43:36.663Z,9048
2018-08-06T04:44:37.168Z,8888
2018-08-06T04:45:36.921Z,9124
2018-08-06T04:46:37.185Z,9532
2018-08-06T04:47:37.185Z,9148
2018-08-06T04:48:37.177Z,9128
2018-08-06T04:49:36.935Z,9156
2018-08-06T04:50:37.180Z,9492
2018-08-06T04:51:37.184Z,9556
2018-08-06T04:52:37.195Z,9528
2018-08-06T04:53:36.940Z,10056
2018-08-06T04:54:37.195Z,10384
2018-08-06T04:55:36.695Z,10508
2018-08-06T04:56:36.955Z,10644
2018-08-06T04:57:37.207Z,11600
2018-08-06T04:58:36.966Z,12296
2018-08-06T04:59:37.349Z,11628
2018-08-06T05:00:37.222Z,12320
2018-08-06T05:01:37.227Z,12660
2018-08-06T05:02:36.735Z,12356
2018-08-06T05:03:37.240Z,13672
2018-08-06T05:04:37.246Z,14732
2018-08-06T05:05:37.250Z,14176
2018-08-06T05:06:37.005Z,14752
2018-08-06T05:07:37.260Z,15616
2018-08-06T05:08:37.271Z,14976
2018-08-06T05:09:36.778Z,14944
2018-08-06T05:10:37.284Z,15840
2018-08-06T05:11:37.294Z,15872
2018-08-06T05:12:37.314Z,15840
2018-08-06T05:13:37.144Z,18592
2018-08-06T05:14:37.312Z,19392
2018-08-06T05:15:37.068Z,17440
2018-08-06T05:16:37.079Z,17760
2018-08-06T05:17:37.340Z,19520
2018-08-06T05:18:37.345Z,18816
2018-08-06T05:19:37.609Z,18848
2018-08-06T05:20:37.110Z,20128
2018-08-06T05:21:37.375Z,19040
2018-08-06T05:22:37.379Z,18656
2018-08-06T05:23:37.137Z,20352
2018-08-06T05:24:37.441Z,19712
2018-08-06T05:25:37.159Z,18656
2018-08-06T05:26:37.433Z,19008
2018-08-06T05:27:37.424Z,19200
2018-08-06T05:28:37.433Z,20448
2018-08-06T05:29:37.443Z,20768
2018-08-06T05:30:37.455Z,19872
2018-08-06T05:31:37.466Z,21344
2018-08-06T05:32:37.220Z,23680
2018-08-06T05:33:37.482Z,23168
2018-08-06T05:34:37.490Z,22880
2018-08-06T05:35:37.254Z,23392
2018-08-06T05:36:37.553Z,22528
2018-08-06T05:37:37.273Z,22112
2018-08-06T05:38:37.285Z,23232
2018-08-06T05:39:37.541Z,24544
2018-08-06T05:40:37.566Z,24608
2018-08-06T05:41:37.566Z,24032
2018-08-06T05:42:37.072Z,24160
2018-08-06T05:43:37.586Z,24608
2018-08-06T05:44:37.341Z,24128
2018-08-06T05:45:37.612Z,24672
2018-08-06T05:46:37.615Z,26624
2018-08-06T05:47:37.627Z,27584
2018-08-06T05:48:37.389Z,26656
2018-08-06T05:49:37.650Z,24992
2018-08-06T05:50:37.409Z,25952
2018-08-06T05:51:37.671Z,29760
2018-08-06T05:52:37.685Z,32448
2018-08-06T05:53:37.443Z,29152
2018-08-06T05:54:37.448Z,23936
2018-08-06T05:55:40.265Z,25984
2018-08-06T05:56:37.723Z,31872
2018-08-06T05:57:37.738Z,35616
2018-08-06T05:58:37.765Z,32992
2018-08-06T05:59:37.510Z,33696
2018-08-06T06:00:37.520Z,35072
2018-08-06T06:01:37.781Z,39328
2018-08-06T06:02:40.544Z,38432
2018-08-06T06:04:37.819Z,31520
2018-08-06T06:05:37.832Z,35968
2018-08-06T06:06:37.839Z,39616
2018-08-06T06:07:38.877Z,38496
2018-08-06T06:08:37.868Z,36800
2018-08-06T06:10:37.638Z,37568
2018-08-06T06:11:37.900Z,37664
2018-08-06T06:12:40.461Z,36704
2018-08-06T06:13:37.671Z,36576
2018-08-06T06:14:38.959Z,38464
2018-08-06T06:15:37.949Z,41344
2018-08-06T06:16:37.710Z,39744
2018-08-06T06:17:37.971Z,37344
2018-08-06T06:18:37.990Z,36608
2018-08-06T06:19:37.995Z,37504
2018-08-06T06:20:38.012Z,37696
2018-08-06T06:21:38.025Z,37472
2018-08-06T06:22:38.034Z,37440
2018-08-06T06:23:38.051Z,35264
2018-08-06T06:24:38.068Z,34816
2018-08-06T06:25:37.847Z,33440
2018-08-06T06:26:38.091Z,32032
2018-08-06T06:27:37.851Z,32928
2018-08-06T06:28:38.394Z,35136
2018-08-06T06:29:37.953Z,35744
2018-08-06T06:30:38.149Z,35040
2018-08-06T06:31:38.166Z,34208
2018-08-06T06:32:38.176Z,32608
2018-08-06T06:33:38.190Z,33056
2018-08-06T06:34:38.279Z,33824
2018-08-06T06:35:38.219Z,34944
2018-08-06T06:36:38.244Z,36736
2018-08-06T06:37:38.257Z,41280
2018-08-06T06:38:38.265Z,48672
2018-08-06T06:39:37.773Z,57472
2018-08-06T06:40:38.051Z,63008
2018-08-06T06:41:38.107Z,61088
2018-08-06T06:42:38.325Z,51616
2018-08-06T06:43:38.346Z,41728
2018-08-06T06:44:38.356Z,41984
2018-08-06T06:45:38.371Z,54720
2018-08-06T06:46:38.392Z,68128
2018-08-06T06:47:38.156Z,72800
2018-08-06T06:48:38.417Z,73728
2018-08-06T06:49:38.451Z,79296
2018-08-06T06:50:38.462Z,88000
2018-08-06T06:51:38.471Z,95456
2018-08-06T06:52:38.481Z,94240
2018-08-06T06:53:38.243Z,81312
2018-08-06T06:54:38.555Z,84864
2018-08-06T06:55:38.530Z,92096
2018-08-06T06:56:38.545Z,98944
2018-08-06T06:57:38.563Z,103136
2018-08-06T06:58:38.581Z,98816
2018-08-06T06:59:38.344Z,92640
2018-08-06T07:00:38.615Z,88960
2018-08-06T07:01:38.629Z,83264
2018-08-06T07:02:38.394Z,73472
2018-08-06T07:03:38.411Z,66688
2018-08-06T07:04:38.680Z,61376
2018-08-06T07:05:38.444Z,59872
2018-08-06T07:06:38.473Z,63968
2018-08-06T07:07:38.484Z,67104
2018-08-06T07:08:38.501Z,65696
2018-08-06T07:09:38.766Z,65696
2018-08-06T07:10:38.782Z,65184
2018-08-06T07:11:38.807Z,63552
2018-08-06T07:12:38.313Z,60352
2018-08-06T07:13:39.020Z,61312
2018-08-06T07:14:38.848Z,61472
2018-08-06T07:15:38.866Z,58560
2018-08-06T07:16:38.887Z,56736
2018-08-06T07:17:38.648Z,57952
2018-08-06T07:18:38.920Z,57824
2018-08-06T07:19:38.686Z,56032
2018-08-06T07:20:38.954Z,55808
2018-08-06T07:21:38.722Z,54464
2018-08-06T07:22:38.736Z,52448
2018-08-06T07:23:38.756Z,50592
2018-08-06T07:24:39.020Z,52480
2018-08-06T07:25:38.792Z,54848
2018-08-06T07:26:39.057Z,52096
2018-08-06T07:27:39.078Z,46176
2018-08-06T07:28:39.097Z,42816
2018-08-06T07:29:39.111Z,43200
2018-08-06T07:30:39.134Z,41600
2018-08-06T07:31:38.893Z,38048
2018-08-06T07:32:39.167Z,37760
2018-08-06T07:33:38.782Z,40928
2018-08-06T07:34:39.202Z,43808
2018-08-06T07:35:38.976Z,46496
2018-08-06T07:36:39.238Z,48736
2018-08-06T07:37:39.254Z,53184
2018-08-06T07:38:39.272Z,58016
2018-08-06T07:39:39.296Z,62784
2018-08-06T07:40:39.061Z,61472
2018-08-06T07:41:39.325Z,58080
2018-08-06T07:42:39.346Z,58112
2018-08-06T07:43:39.366Z,62080
2018-08-06T07:44:39.386Z,59136
2018-08-06T07:45:39.150Z,47232
2018-08-06T07:46:39.166Z,51232
2018-08-06T07:47:38.967Z,53088
2018-08-06T07:48:39.205Z,52896
2018-08-06T07:49:39.629Z,51296
2018-08-06T07:50:39.511Z,53408
2018-08-06T07:51:39.510Z,59232
2018-08-06T07:52:39.525Z,64672
2018-08-06T07:53:39.039Z,68864
2018-08-06T07:54:39.561Z,71712
2018-08-06T07:55:39.073Z,71200
2018-08-06T07:56:39.600Z,72480
2018-08-06T07:57:39.614Z,74912
2018-08-06T07:58:39.638Z,77760
2018-08-06T07:59:43.648Z,79008
2018-08-06T08:01:39.688Z,67296
2018-08-06T08:02:41.384Z,62944
2018-08-06T08:03:39.727Z,64864
2018-08-06T08:04:39.488Z,69184
2018-08-06T08:05:39.757Z,75136
2018-08-06T08:06:39.679Z,80768
2018-08-06T08:07:39.538Z,79584
2018-08-06T08:08:39.566Z,75712
2018-08-06T08:09:39.829Z,76608
2018-08-06T08:10:39.841Z,76832
2018-08-06T08:11:39.859Z,69696
2018-08-06T08:12:39.877Z,57280
2018-08-06T08:13:39.644Z,48736
2018-08-06T08:14:39.914Z,51808
2018-08-06T08:15:39.675Z,61312
2018-08-06T08:16:39.699Z,63328
2018-08-06T08:17:39.970Z,62592
2018-08-06T08:18:39.726Z,66944
2018-08-06T08:19:40.699Z,77984
2018-08-06T08:20:39.759Z,85312
2018-08-06T08:21:39.776Z,82048
2018-08-06T08:22:39.538Z,73120
2018-08-06T08:23:40.068Z,65024
2018-08-06T08:24:39.572Z,59360
2018-08-06T08:25:40.088Z,60160
2018-08-06T08:26:39.859Z,63872
2018-08-06T08:27:39.871Z,66528
2018-08-06T08:28:39.632Z,74496
2018-08-06T08:29:40.157Z,80928
2018-08-06T08:30:39.916Z,78880
2018-08-06T08:31:40.179Z,69248
2018-08-06T08:32:40.195Z,64928
2018-08-06T08:33:40.210Z,69312
2018-08-06T08:34:40.229Z,73824
2018-08-06T08:35:39.988Z,71264
2018-08-06T08:36:40.255Z,66592
2018-08-06T08:37:40.272Z,68992
2018-08-06T08:38:40.286Z,78048
2018-08-06T08:39:40.500Z,85344
2018-08-06T08:40:40.060Z,86880
2018-08-06T08:41:40.331Z,85760
2018-08-06T08:42:40.341Z,79168
2018-08-06T08:43:40.362Z,65632
2018-08-06T08:44:40.370Z,53056
2018-08-06T08:45:40.874Z,50304
2018-08-06T08:46:40.145Z,61440
2018-08-06T08:47:40.408Z,53184
2018-08-06T08:48:40.426Z,19776
2018-08-06T08:49:40.186Z,5792
2018-08-06T08:50:40.203Z,5532
2018-08-06T08:51:40.461Z,5472
2018-08-06T08:52:40.565Z,5464
2018-08-06T08:53:40.488Z,5436
2018-08-06T08:54:40.260Z,5396
2018-08-06T08:55:40.257Z,5364
2018-08-06T08:56:40.272Z,5336
2018-08-06T08:57:40.034Z,5304
2018-08-06T08:58:41.084Z,5288
2018-08-06T08:59:40.551Z,5276
2018-08-06T09:00:40.559Z,5272
2018-08-06T09:01:40.324Z,5264
2018-08-06T09:02:40.585Z,5252
2018-08-06T09:03:40.334Z,5236
2018-08-06T09:04:40.340Z,5232
2018-08-06T09:05:40.601Z,5220
2018-08-06T09:06:40.605Z,5208
2018-08-06T09:07:40.616Z,5192
2018-08-06T09:08:40.623Z,5180
2018-08-06T09:09:40.630Z,5164
2018-08-06T09:10:40.632Z,5152
2018-08-06T09:11:40.388Z,5156
2018-08-06T09:12:40.651Z,5136
2018-08-06T09:13:40.399Z,5120
2018-08-06T09:14:40.672Z,5100
2018-08-06T09:15:40.664Z,5080
2018-08-06T09:16:40.484Z,5072
2018-08-06T09:17:40.677Z,5060
2018-08-06T09:18:40.685Z,5044
2018-08-06T09:19:40.436Z,5032
2018-08-06T09:20:40.693Z,5020
2018-08-06T09:21:40.699Z,5012
2018-08-06T09:22:40.440Z,5000
2018-08-06T09:23:40.695Z,4996
2018-08-06T09:24:40.455Z,4988
2018-08-06T09:25:40.709Z,4992
2018-08-06T09:26:40.817Z,4984
2018-08-06T09:27:40.205Z,4984
2018-08-06T09:28:40.717Z,4972
2018-08-06T09:29:40.466Z,4960
2018-08-06T09:30:40.728Z,4948
2018-08-06T09:31:40.468Z,4928
2018-08-06T09:32:40.724Z,4924
2018-08-06T09:33:40.475Z,4920
2018-08-06T09:34:40.735Z,4912
2018-08-06T09:35:40.731Z,4920
2018-08-06T09:36:40.732Z,4924
2018-08-06T09:37:40.747Z,4920
2018-08-06T09:38:40.751Z,4924
2018-08-06T09:39:40.748Z,4920
2018-08-06T09:40:41.135Z,4904
2018-08-06T09:41:40.494Z,4888
2018-08-06T09:42:40.496Z,4872
2018-08-06T09:43:40.753Z,4848
2018-08-06T09:44:40.498Z,4824
2018-08-06T09:45:40.761Z,4800
2018-08-06T09:46:40.759Z,4776
2018-08-06T09:47:40.756Z,4756
2018-08-06T09:48:40.947Z,4744
2018-08-06T09:49:40.508Z,4736
2018-08-06T09:50:40.762Z,4728
2018-08-06T09:51:40.511Z,4720
2018-08-06T09:52:40.513Z,4700
2018-08-06T09:53:40.768Z,4688
2018-08-06T09:54:40.267Z,4672
2018-08-06T09:55:40.775Z,4660
2018-08-06T09:56:40.773Z,4644
2018-08-06T09:57:40.525Z,4640
2018-08-06T09:58:40.782Z,4644
2018-08-06T09:59:40.792Z,4652
2018-08-06T10:00:40.786Z,4656
2018-08-06T10:01:40.785Z,4660
2018-08-06T10:02:40.792Z,4660
2018-08-06T10:03:40.539Z,4668
2018-08-06T10:04:40.792Z,4668
2018-08-06T10:05:40.837Z,4660
2018-08-06T10:06:41.777Z,4656
2018-08-06T10:07:40.792Z,4644
2018-08-06T10:08:40.548Z,4640
2018-08-06T10:09:40.548Z,4632
2018-08-06T10:10:40.803Z,4620
2018-08-06T10:11:40.549Z,4616
2018-08-06T10:12:40.806Z,4604
2018-08-06T10:13:40.557Z,4592
2018-08-06T10:14:40.825Z,4576
2018-08-06T10:15:40.567Z,4556
2018-08-06T10:16:40.816Z,4536
2018-08-06T10:17:40.828Z,4512
2018-08-06T10:18:40.835Z,4500
2018-08-06T10:19:41.228Z,4488
2018-08-06T10:20:40.566Z,4476
2018-08-06T10:21:40.820Z,4472
2018-08-06T10:22:40.570Z,4456
2018-08-06T10:23:40.823Z,4448
2018-08-06T10:24:41.203Z,4444
2018-08-06T10:25:40.829Z,4444
2018-08-06T10:26:40.831Z,4444
2018-08-06T10:27:40.833Z,4448
2018-08-06T10:28:40.591Z,4452
2018-08-06T10:29:40.843Z,4448
2018-08-06T10:30:40.880Z,4448
2018-08-06T10:31:40.843Z,4448
2018-08-06T10:32:40.845Z,4448
2018-08-06T10:33:40.592Z,4440
2018-08-06T10:34:40.847Z,4436
2018-08-06T10:35:40.599Z,4432
2018-08-06T10:36:40.609Z,4420
2018-08-06T10:37:40.861Z,4408
2018-08-06T10:38:40.857Z,4392
2018-08-06T10:39:40.602Z,4380
2018-08-06T10:40:40.964Z,4364
2018-08-06T10:41:40.858Z,4348
2018-08-06T10:42:40.613Z,4332
2018-08-06T10:43:40.863Z,4320
2018-08-06T10:44:40.863Z,4312
2018-08-06T10:45:40.616Z,4304
2018-08-06T10:46:40.615Z,4300
2018-08-06T10:47:53.613Z,4288
2018-08-06T10:48:41.106Z,4284
2018-08-06T10:49:40.631Z,4272
2018-08-06T10:50:40.873Z,4260
2018-08-06T10:51:40.884Z,4260
2018-08-06T10:52:40.878Z,4264
2018-08-06T10:53:40.884Z,4260
2018-08-06T10:54:40.383Z,4256
2018-08-06T10:55:40.632Z,4252
2018-08-06T10:56:40.387Z,4252
2018-08-06T10:57:40.663Z,4252
2018-08-06T10:58:40.890Z,4252
2018-08-06T10:59:40.788Z,4256
2018-08-06T11:00:41.017Z,4264
2018-08-06T11:01:40.896Z,4268
2018-08-06T11:02:40.646Z,4272
2018-08-06T11:03:40.907Z,4268
2018-08-06T11:04:40.905Z,4268
2018-08-06T11:05:40.675Z,4264
2018-08-06T11:06:41.257Z,4256
2018-08-06T11:07:40.912Z,4248
2018-08-06T11:08:40.924Z,4244
2018-08-06T11:09:40.663Z,4240
2018-08-06T11:10:40.920Z,4232
2018-08-06T11:11:40.935Z,4220
2018-08-06T11:12:40.929Z,4212
2018-08-06T11:13:40.923Z,4192
2018-08-06T11:14:40.951Z,4176
2018-08-06T11:15:40.933Z,4164
2018-08-06T11:16:40.939Z,4148
2018-08-06T11:17:40.933Z,4140
2018-08-06T11:18:40.934Z,4128
2018-08-06T11:19:40.695Z,4120
2018-08-06T11:20:41.267Z,4108
2018-08-06T11:21:40.437Z,4104
2018-08-06T11:22:40.189Z,4096
2018-08-06T11:23:40.950Z,4084
2018-08-06T11:24:41.196Z,4076
2018-08-06T11:25:40.956Z,4068
2018-08-06T11:26:40.955Z,4068
2018-08-06T11:27:40.956Z,4060
2018-08-06T11:28:40.893Z,4056
2018-08-06T11:29:40.958Z,4052
2018-08-06T11:30:40.963Z,4044
2018-08-06T11:31:40.717Z,4036
2018-08-06T11:32:40.979Z,4032
2018-08-06T11:33:40.969Z,4024
2018-08-06T11:34:40.727Z,4016
2018-08-06T11:35:40.971Z,4012
2018-08-06T11:36:40.792Z,4004
2018-08-06T11:37:40.729Z,4000
2018-08-06T11:38:40.986Z,3996
2018-08-06T11:39:40.988Z,3996
2018-08-06T11:40:40.988Z,3984
2018-08-06T11:41:40.987Z,3976
2018-08-06T11:42:40.989Z,3964
2018-08-06T11:43:41.034Z,3956
2018-08-06T11:44:40.994Z,3940
2018-08-06T11:45:41.005Z,3924
2018-08-06T11:46:41.076Z,3912
2018-08-06T11:47:41.012Z,3896
2018-08-06T11:48:41.009Z,3884
2018-08-06T11:49:41.017Z,3876
2018-08-06T11:50:40.759Z,3868
2018-08-06T11:51:40.762Z,3860
2018-08-06T11:52:41.017Z,3852
2018-08-06T11:53:41.017Z,3848
2018-08-06T11:54:41.029Z,3848
2018-08-06T11:55:41.041Z,3844
2018-08-06T11:56:41.508Z,3836
2018-08-06T11:57:40.777Z,3832
2018-08-06T11:58:40.810Z,3824
2018-08-06T11:59:41.054Z,3816
2018-08-06T12:00:40.784Z,3808
2018-08-06T12:01:40.785Z,3800
2018-08-06T12:02:41.043Z,3796
2018-08-06T12:03:41.056Z,3796
2018-08-06T12:04:41.060Z,3796
2018-08-06T12:05:41.156Z,3796
2018-08-06T12:06:40.804Z,3800
2018-08-06T12:07:41.052Z,3804
2018-08-06T12:08:40.961Z,3804
2018-08-06T12:09:40.814Z,3804
2018-08-06T12:10:40.806Z,3800
2018-08-06T12:11:41.063Z,3792
2018-08-06T12:12:41.062Z,3788
2018-08-06T12:13:40.962Z,3780
2018-08-06T12:14:41.068Z,3768
2018-08-06T12:15:41.069Z,3764
2018-08-06T12:16:41.082Z,3752
2018-08-06T12:17:41.102Z,3748
2018-08-06T12:18:41.081Z,3740
2018-08-06T12:19:40.828Z,3736
2018-08-06T12:20:41.084Z,3728
2018-08-06T12:21:41.088Z,3724
2018-08-06T12:22:41.087Z,3716
2018-08-06T12:23:40.895Z,3708
2018-08-06T12:24:41.092Z,3704
2018-08-06T12:25:41.108Z,3696
2018-08-06T12:26:40.851Z,3688
2018-08-06T12:27:41.130Z,3684
2018-08-06T12:28:41.098Z,3684
2018-08-06T12:29:41.116Z,3676
2018-08-06T12:30:41.106Z,3668
2018-08-06T12:31:41.456Z,3668
2018-08-06T12:32:41.118Z,3664
2018-08-06T12:33:41.170Z,3664
2018-08-06T12:34:41.117Z,3660
2018-08-06T12:35:41.123Z,3660
2018-08-06T12:36:40.868Z,3660
2018-08-06T12:37:41.125Z,3656
2018-08-06T12:38:41.128Z,3656
2018-08-06T12:39:40.878Z,3656
2018-08-06T12:40:41.130Z,3652
2018-08-06T12:41:41.132Z,3656
2018-08-06T12:42:41.137Z,3648
2018-08-06T12:43:40.893Z,3648
2018-08-06T12:44:41.140Z,3640
2018-08-06T12:45:40.641Z,3636
2018-08-06T12:46:41.149Z,3632
2018-08-06T12:47:41.154Z,3636
2018-08-06T12:48:41.154Z,3628
2018-08-06T12:49:41.160Z,3632
2018-08-06T12:50:40.909Z,3628
2018-08-06T12:51:41.424Z,3628
2018-08-06T12:52:41.160Z,3624
2018-08-06T12:53:41.164Z,3624
2018-08-06T12:54:41.168Z,3620
2018-08-06T12:55:41.166Z,3616
2018-08-06T12:56:41.233Z,3612
2018-08-06T12:57:41.194Z,3608
2018-08-06T12:58:41.189Z,3608
2018-08-06T12:59:41.188Z,3604
2018-08-06T13:00:40.928Z,3600
2018-08-06T13:01:41.186Z,3600
2018-08-06T13:02:41.185Z,3600
2018-08-06T13:03:40.937Z,3592
2018-08-06T13:04:41.196Z,3588
2018-08-06T13:05:41.198Z,3588
2018-08-06T13:06:40.699Z,3584
2018-08-06T13:07:40.950Z,3584
2018-08-06T13:08:41.204Z,3584
2018-08-06T13:09:40.955Z,3584
2018-08-06T13:10:40.953Z,3580
2018-08-06T13:11:40.957Z,3580
2018-08-06T13:12:41.219Z,3576
2018-08-06T13:13:40.961Z,3572
2018-08-06T13:14:41.218Z,3576
2018-08-06T13:15:40.966Z,3572
2018-08-06T13:16:41.223Z,3572
2018-08-06T13:17:41.227Z,3572
2018-08-06T13:18:41.228Z,3572
2018-08-06T13:19:40.978Z,3564
2018-08-06T13:20:41.234Z,3560
2018-08-06T13:21:40.731Z,3560
2018-08-06T13:22:41.240Z,3556
2018-08-06T13:23:40.988Z,3552
2018-08-06T13:24:40.487Z,3552
2018-08-06T13:25:40.998Z,3548
2018-08-06T13:26:41.250Z,3552
2018-08-06T13:27:41.258Z,3548
2018-08-06T13:28:41.253Z,3548
2018-08-06T13:29:41.259Z,3548
2018-08-06T13:30:41.256Z,3544
2018-08-06T13:31:41.011Z,3540
2018-08-06T13:32:41.267Z,3536
2018-08-06T13:33:41.011Z,3532
2018-08-06T13:34:41.268Z,3532